Time;durP1;ratioP1;P1;durP2;ratioP2;P2;SDS_P1;SDS_P2;PMS_P1;PMS_P2;Temp;Humidity;BMP_temperature;BMP_pressure;BME280_temperature;BME280_humidity;BME280_pressure;Samples;Min_cycle;Max_cycle;Signal;HPM_P1;HPM_P2
2022/08/06 00:00:51;;;;;;;1.60;1.30;;;13.90;84.40;;;;;;5029472;28;20052;-62
2022/08/06 00:03:17;;;;;;;6.05;1.45;;;13.80;84.50;;;;;;5029449;28;20425;-68
2022/08/06 00:05:42;;;;;;;2.88;1.05;;;13.80;84.40;;;;;;5032962;28;20030;-66
2022/08/06 00:08:08;;;;;;;3.63;1.15;;;13.80;84.70;;;;;;5015303;28;20021;-78
2022/08/06 00:10:33;;;;;;;1.80;0.80;;;13.80;84.90;;;;;;5024996;28;20449;-65
2022/08/06 00:13:00;;;;;;;3.25;1.17;;;13.70;85.10;;;;;;5019785;28;20525;-71
2022/08/06 00:15:26;;;;;;;1.52;1.00;;;13.70;85.50;;;;;;5030024;28;20482;-77
2022/08/06 00:17:52;;;;;;;4.60;1.40;;;13.60;85.50;;;;;;5014095;28;20092;-70
2022/08/06 00:20:18;;;;;;;4.57;1.52;;;13.60;85.60;;;;;;5003067;28;20045;-73
2022/08/06 00:22:44;;;;;;;7.13;1.50;;;13.60;85.80;;;;;;5033831;28;20432;-72
2022/08/06 00:25:10;;;;;;;3.85;1.60;;;13.50;86.00;;;;;;5044246;28;20029;-75
2022/08/06 00:27:36;;;;;;;5.05;1.35;;;13.50;86.90;;;;;;5030874;28;20021;-75
2022/08/06 00:30:03;;;;;;;1.73;0.90;;;13.40;86.60;;;;;;5029845;28;20079;-77
2022/08/06 00:32:29;;;;;;;1.98;1.27;;;13.40;86.90;;;;;;5014949;28;20049;-79
2022/08/06 00:34:54;;;;;;;4.93;1.35;;;13.30;87.00;;;;;;5013916;28;20042;-78
2022/08/06 00:37:20;;;;;;;7.15;1.50;;;13.30;87.20;;;;;;5031184;28;20438;-62
2022/08/06 00:39:46;;;;;;;5.70;1.45;;;13.30;87.30;;;;;;5015100;28;20446;-63
2022/08/06 00:42:12;;;;;;;2.50;1.40;;;13.30;87.70;;;;;;4997517;28;20140;-62
2022/08/06 00:44:38;;;;;;;2.55;1.25;;;13.20;88.10;;;;;;5024557;28;20013;-62
2022/08/06 00:47:03;;;;;;;4.10;1.60;;;13.20;88.00;;;;;;5017660;28;20045;-61
2022/08/06 00:49:29;;;;;;;2.08;1.48;;;13.20;88.30;;;;;;5032639;28;20022;-61
2022/08/06 00:51:54;;;;;;;5.00;1.45;;;13.20;88.60;;;;;;5026757;28;20030;-62
2022/08/06 00:54:21;;;;;;;4.95;1.80;;;13.20;88.80;;;;;;5034657;28;20029;-60
2022/08/06 00:56:46;;;;;;;3.67;1.40;;;13.10;89.10;;;;;;5014717;28;20060;-60
2022/08/06 00:59:12;;;;;;;3.22;1.30;;;13.00;89.10;;;;;;5029538;28;20135;-60
2022/08/06 01:01:38;;;;;;;3.72;1.52;;;13.00;89.40;;;;;;5014675;28;20041;-61
2022/08/06 01:04:04;;;;;;;3.92;1.58;;;13.00;89.90;;;;;;5024845;28;20469;-61
2022/08/06 01:06:29;;;;;;;4.18;1.60;;;12.90;90.00;;;;;;5036583;28;20041;-67
2022/08/06 01:08:55;;;;;;;2.67;1.45;;;12.80;90.10;;;;;;5032773;28;20084;-60
2022/08/06 01:11:21;;;;;;;3.50;1.35;;;12.80;90.20;;;;;;5036105;28;20547;-67
2022/08/06 01:13:47;;;;;;;4.15;1.60;;;12.70;90.30;;;;;;5032311;28;20021;-62
2022/08/06 01:16:36;;;;;;;3.25;1.48;;;12.70;90.40;;;;;;5033907;28;20037;-65
2022/08/06 01:19:22;;;;;;;5.95;1.75;;;12.60;90.50;;;;;;4994664;28;20041;-64
2022/08/06 01:22:02;;;;;;;3.30;1.63;;;12.60;90.70;;;;;;5025039;28;20034;-62
2022/08/06 01:24:50;;;;;;;3.30;1.63;;;12.50;91.00;;;;;;5021507;28;20083;-62
2022/08/06 01:27:31;;;;;;;3.67;1.77;;;12.40;91.00;;;;;;5015767;28;20028;-62
2022/08/06 01:30:03;;;;;;;3.22;1.50;;;12.40;91.20;;;;;;5025779;28;20025;-67
2022/08/06 01:32:42;;;;;;;4.65;1.45;;;12.30;91.20;;;;;;5032344;28;20076;-61
2022/08/06 01:35:13;;;;;;;3.35;1.70;;;12.30;91.60;;;;;;5013343;28;20053;-62
2022/08/06 01:37:50;;;;;;;5.18;2.00;;;12.20;91.40;;;;;;5013593;28;20490;-61
2022/08/06 01:40:24;;;;;;;2.65;1.67;;;12.20;91.50;;;;;;5029012;28;20332;-63
2022/08/06 01:42:53;;;;;;;2.95;1.75;;;12.20;91.60;;;;;;5029701;28;20029;-61
2022/08/06 01:45:21;;;;;;;4.25;1.92;;;12.10;91.70;;;;;;5019460;28;20101;-61
2022/08/06 01:47:51;;;;;;;3.70;1.88;;;12.10;91.80;;;;;;5025968;28;20036;-62
2022/08/06 01:50:21;;;;;;;6.43;2.40;;;12.10;92.00;;;;;;5025438;28;20026;-65
2022/08/06 01:52:49;;;;;;;3.72;1.80;;;12.00;92.20;;;;;;5028481;28;20024;-61
2022/08/06 01:55:18;;;;;;;4.43;2.17;;;12.00;92.20;;;;;;5028204;28;20582;-62
2022/08/06 01:57:49;;;;;;;5.22;2.15;;;12.00;92.30;;;;;;5013501;28;20290;-75
2022/08/06 02:00:16;;;;;;;3.38;1.60;;;11.90;92.40;;;;;;5026148;28;20462;-78
2022/08/06 02:02:44;;;;;;;3.28;1.35;;;11.90;92.40;;;;;;5019971;28;20122;-74
2022/08/06 02:05:12;;;;;;;3.00;1.70;;;11.90;92.60;;;;;;5023780;28;20099;-71
2022/08/06 02:07:41;;;;;;;1.73;1.33;;;11.90;92.70;;;;;;5031609;28;20075;-78
2022/08/06 02:10:09;;;;;;;4.28;1.80;;;11.80;92.70;;;;;;5031620;28;20029;-74
2022/08/06 02:12:37;;;;;;;3.97;1.20;;;11.90;92.80;;;;;;5031631;28;20466;-78
2022/08/06 02:15:17;;;;;;;4.18;1.42;;;11.90;92.80;;;;;;5031950;28;20025;-78
2022/08/06 02:17:50;;;;;;;3.40;2.03;;;11.90;92.80;;;;;;5032278;28;20029;-78
2022/08/06 02:20:19;;;;;;;3.08;1.80;;;11.90;93.00;;;;;;5016957;28;20109;-77
2022/08/06 02:22:46;;;;;;;3.53;1.73;;;11.90;93.20;;;;;;5030226;28;20474;-72
2022/08/06 02:25:14;;;;;;;4.65;1.70;;;11.80;93.10;;;;;;5015749;28;20601;-74
2022/08/06 02:27:45;;;;;;;1.98;1.30;;;11.80;93.20;;;;;;5031169;28;20088;-73
2022/08/06 02:30:12;;;;;;;3.97;1.50;;;11.70;93.20;;;;;;5023568;28;20029;-77
2022/08/06 02:32:39;;;;;;;6.38;1.80;;;11.70;93.20;;;;;;5024457;28;20486;-77
2022/08/06 02:35:05;;;;;;;3.97;1.83;;;11.70;93.40;;;;;;5027159;28;20057;-78
2022/08/06 02:37:38;;;;;;;2.38;1.58;;;11.70;93.60;;;;;;5004354;28;20026;-78
2022/08/06 02:40:09;;;;;;;3.25;1.80;;;11.60;93.60;;;;;;4995704;28;20018;-77
2022/08/06 02:42:52;;;;;;;6.28;1.85;;;11.60;93.80;;;;;;5024921;28;20485;-77
2022/08/06 02:45:26;;;;;;;5.20;1.75;;;11.60;93.90;;;;;;5044348;28;20131;-74
2022/08/06 02:48:19;;;;;;;2.50;1.50;;;11.50;94.00;;;;;;5031652;28;20401;-76
2022/08/06 02:50:47;;;;;;;2.40;1.55;;;11.50;94.00;;;;;;5028235;28;20017;-77
2022/08/06 02:53:41;;;;;;;5.22;1.88;;;11.50;94.10;;;;;;5001851;28;20034;-77
2022/08/06 02:56:11;;;;;;;2.80;1.58;;;11.40;94.10;;;;;;5025642;28;20501;-68
2022/08/06 02:58:58;;;;;;;3.10;1.50;;;11.40;94.20;;;;;;5011527;28;20525;-61
2022/08/06 03:01:32;;;;;;;3.10;1.67;;;11.40;94.30;;;;;;5018708;28;20045;-61
2022/08/06 03:04:00;;;;;;;3.22;1.50;;;11.40;94.30;;;;;;5022662;28;20132;-61
2022/08/06 03:06:29;;;;;;;3.35;1.65;;;11.40;94.80;;;;;;5030301;28;20057;-61
2022/08/06 03:08:56;;;;;;;6.72;1.70;;;11.30;94.50;;;;;;5030285;28;20018;-61
2022/08/06 03:11:24;;;;;;;4.28;1.70;;;11.30;94.60;;;;;;5029612;28;20365;-60
2022/08/06 03:13:51;;;;;;;3.47;1.75;;;11.30;94.70;;;;;;5012645;28;20028;-62
2022/08/06 03:16:18;;;;;;;3.38;1.60;;;11.30;94.70;;;;;;5021638;28;20040;-61
2022/08/06 03:18:46;;;;;;;2.83;1.42;;;11.30;94.70;;;;;;5011507;28;20026;-61
2022/08/06 03:21:12;;;;;;;3.40;1.40;;;11.30;94.60;;;;;;5019776;28;20120;-60
2022/08/06 03:23:39;;;;;;;2.95;1.77;;;11.30;94.60;;;;;;5030519;28;20061;-61
2022/08/06 03:26:07;;;;;;;2.40;1.17;;;11.30;94.60;;;;;;5038816;28;20032;-61
2022/08/06 03:28:34;;;;;;;3.47;1.60;;;11.30;94.60;;;;;;5031634;28;20022;-62
2022/08/06 03:31:01;;;;;;;3.53;1.60;;;11.30;94.60;;;;;;5017515;28;20022;-62
2022/08/06 03:33:27;;;;;;;5.03;1.85;;;11.30;94.50;;;;;;5019807;28;20026;-63
2022/08/06 03:35:55;;;;;;;2.85;1.30;;;11.40;94.50;;;;;;5033662;28;20037;-66
2022/08/06 03:38:23;;;;;;;3.47;1.27;;;11.30;94.50;;;;;;5027083;28;20025;-61
2022/08/06 03:40:50;;;;;;;2.22;1.60;;;11.30;94.40;;;;;;5027755;28;20048;-61
2022/08/06 03:43:16;;;;;;;3.03;1.50;;;11.30;94.50;;;;;;5033443;28;20080;-65
2022/08/06 03:45:48;;;;;;;2.08;1.50;;;11.30;94.40;;;;;;5011778;28;20026;-61
2022/08/06 03:48:19;;;;;;;1.75;1.02;;;11.40;94.40;;;;;;5027016;28;20025;-77
2022/08/06 03:50:47;;;;;;;;;;;11.40;94.40;;;;;;5032201;28;20017;-65
2022/08/06 03:53:20;;;;;;;1.90;1.50;;;11.40;94.50;;;;;;5029266;28;19908;-74
2022/08/06 03:55:47;;;;;;;3.10;1.40;;;11.30;94.40;;;;;;5019743;28;20340;-64
2022/08/06 03:58:15;;;;;;;1.92;1.20;;;11.30;94.40;;;;;;5026497;28;20029;-69
2022/08/06 04:00:56;;;;;;;1.92;1.30;;;11.30;94.80;;;;;;5034036;28;20072;-63
2022/08/06 04:03:22;;;;;;;1.25;1.15;;;11.30;94.50;;;;;;5030181;28;20139;-70
2022/08/06 04:05:48;;;;;;;2.20;1.25;;;11.30;94.50;;;;;;5030516;28;20075;-73
2022/08/06 04:08:15;;;;;;;4.53;1.50;;;11.30;94.50;;;;;;5030817;28;20426;-67
2022/08/06 04:10:43;;;;;;;7.20;2.15;;;11.30;94.50;;;;;;5032279;28;20095;-73
2022/08/06 04:13:12;;;;;;;2.97;1.73;;;11.30;94.60;;;;;;5034580;28;20040;-72
2022/08/06 04:15:38;;;;;;;3.92;1.80;;;11.20;94.50;;;;;;5034357;28;20068;-70
2022/08/06 04:18:15;;;;;;;5.22;1.50;;;11.30;94.60;;;;;;5034515;28;20112;-66
2022/08/06 04:20:45;;;;;;;4.47;1.88;;;11.20;94.70;;;;;;5023119;28;20450;-78
2022/08/06 04:23:12;;;;;;;3.20;1.73;;;11.30;94.70;;;;;;5022444;28;20022;-67
2022/08/06 04:25:48;;;;;;;4.22;1.90;;;11.30;94.70;;;;;;5034507;28;20063;-74
2022/08/06 04:28:15;;;;;;;3.58;1.67;;;11.30;94.70;;;;;;5034993;28;20116;-73
2022/08/06 04:30:41;;;;;;;3.78;1.90;;;11.30;94.70;;;;;;5034385;28;20049;-73
2022/08/06 04:33:10;;;;;;;5.93;2.10;;;11.30;94.70;;;;;;5033687;28;20064;-74
2022/08/06 04:35:40;;;;;;;2.72;1.85;;;11.30;94.70;;;;;;5001899;28;20054;-73
2022/08/06 04:38:06;;;;;;;4.07;1.60;;;11.30;94.70;;;;;;5016172;28;20029;-77
2022/08/06 04:40:32;;;;;;;4.90;1.80;;;11.30;94.80;;;;;;5034608;28;20041;-65
2022/08/06 04:42:57;;;;;;;4.18;1.55;;;11.30;94.80;;;;;;5034064;28;20024;-77
2022/08/06 04:45:26;;;;;;;4.25;1.50;;;11.30;94.80;;;;;;5033210;28;20389;-75
2022/08/06 04:47:52;;;;;;;2.83;1.65;;;11.20;95.00;;;;;;5034098;28;20437;-78
2022/08/06 04:50:18;;;;;;;3.15;1.90;;;11.20;95.00;;;;;;5034629;28;20099;-70
2022/08/06 04:52:44;;;;;;;3.90;1.70;;;11.20;95.00;;;;;;5033798;28;20497;-78
2022/08/06 04:55:10;;;;;;;3.47;1.77;;;11.10;95.00;;;;;;5030812;28;20033;-79
2022/08/06 04:57:35;;;;;;;3.08;1.90;;;11.10;95.20;;;;;;5034112;28;20025;-74
2022/08/06 05:00:01;;;;;;;4.07;1.65;;;11.10;95.20;;;;;;5016191;28;20029;-77
2022/08/06 05:02:26;;;;;;;3.75;1.90;;;11.20;95.30;;;;;;5034310;28;20512;-78
2022/08/06 05:04:57;;;;;;;6.88;1.90;;;11.20;95.40;;;;;;5023478;28;20521;-78
2022/08/06 05:07:28;;;;;;;2.38;1.63;;;11.20;95.50;;;;;;5034482;28;20029;-78
2022/08/06 05:09:56;;;;;;;2.90;2.08;;;11.20;95.50;;;;;;5032948;28;20480;-77
2022/08/06 05:12:46;;;;;;;3.53;1.65;;;11.20;95.50;;;;;;5033624;28;20022;-76
2022/08/06 05:15:29;;;;;;;3.88;1.65;;;11.30;95.40;;;;;;5033726;28;20404;-76
2022/08/06 05:18:14;;;;;;;3.58;1.85;;;11.40;95.50;;;;;;5016524;28;20362;-76
2022/08/06 05:20:42;;;;;;;6.50;1.90;;;11.50;95.40;;;;;;5023259;28;20108;-61
2022/08/06 05:23:22;;;;;;;3.50;1.73;;;11.60;95.40;;;;;;5012315;28;20219;-68
2022/08/06 05:25:49;;;;;;;2.58;1.45;;;11.70;95.60;;;;;;5013477;28;20532;-63
2022/08/06 05:28:15;;;;;;;2.33;1.73;;;11.80;95.20;;;;;;5013844;28;20018;-64
2022/08/06 05:30:45;;;;;;;1.80;1.20;;;11.90;95.10;;;;;;5014183;28;20067;-61
2022/08/06 05:33:11;;;;;;;2.33;1.00;;;12.00;95.00;;;;;;5012735;28;20029;-61
2022/08/06 05:35:37;;;;;;;1.38;1.20;;;12.20;94.90;;;;;;5014202;28;20342;-61
2022/08/06 05:38:02;;;;;;;4.18;0.82;;;12.30;94.70;;;;;;5033148;28;20026;-62
2022/08/06 05:40:33;;;;;;;1.10;0.85;;;12.40;94.50;;;;;;5032762;28;20037;-61
2022/08/06 05:43:00;;;;;;;3.63;0.95;;;12.50;94.30;;;;;;5033265;28;20037;-68
2022/08/06 05:45:26;;;;;;;3.58;1.38;;;12.60;94.10;;;;;;5024526;28;20034;-64
2022/08/06 05:47:54;;;;;;;2.38;0.90;;;12.70;94.10;;;;;;5012484;28;20029;-67
2022/08/06 05:50:26;;;;;;;2.58;1.00;;;12.80;94.00;;;;;;5013486;28;20018;-61
2022/08/06 05:53:07;;;;;;;1.70;1.05;;;12.90;93.90;;;;;;5012953;28;20021;-60
2022/08/06 05:55:45;;;;;;;1.80;0.90;;;13.10;93.70;;;;;;5015723;28;20026;-62
2022/08/06 05:58:19;;;;;;;3.15;0.90;;;13.20;93.50;;;;;;5013071;28;20069;-60
2022/08/06 06:00:46;;;;;;;2.45;1.30;;;13.30;93.40;;;;;;5013255;28;20040;-66
2022/08/06 06:03:13;;;;;;;2.22;1.00;;;13.40;93.30;;;;;;4995195;28;20678;-64
2022/08/06 06:05:41;;;;;;;3.17;1.02;;;13.60;93.20;;;;;;4997110;28;20026;-60
2022/08/06 06:08:08;;;;;;;2.85;0.90;;;13.70;93.10;;;;;;5011901;28;20029;-64
2022/08/06 06:10:35;;;;;;;1.25;0.85;;;13.80;93.00;;;;;;5020099;28;20064;-62
2022/08/06 06:13:04;;;;;;;2.00;1.00;;;13.90;92.90;;;;;;5032183;28;20540;-61
2022/08/06 06:15:34;;;;;;;4.25;1.52;;;14.00;92.90;;;;;;5033865;28;20078;-61
2022/08/06 06:18:21;;;;;;;1.25;1.10;;;14.10;92.90;;;;;;5035033;28;20113;-61
2022/08/06 06:21:09;;;;;;;1.55;0.90;;;14.20;92.70;;;;;;5032580;28;20512;-61
2022/08/06 06:23:54;;;;;;;1.42;0.80;;;14.30;92.60;;;;;;5031953;28;20024;-61
2022/08/06 06:26:33;;;;;;;1.15;0.80;;;14.40;92.50;;;;;;5032491;28;20030;-62
2022/08/06 06:29:15;;;;;;;3.20;1.00;;;14.50;92.30;;;;;;5030371;28;20029;-64
2022/08/06 06:32:21;;;;;;;2.90;1.20;;;14.60;92.10;;;;;;5014572;28;20029;-63
2022/08/06 06:35:07;;;;;;;1.95;0.80;;;14.80;92.20;;;;;;5011076;28;20399;-67
2022/08/06 06:37:33;;;;;;;1.80;0.93;;;14.90;92.10;;;;;;5030707;28;20498;-65
2022/08/06 06:40:21;;;;;;;3.17;1.23;;;15.00;91.80;;;;;;5031970;28;20049;-62
2022/08/06 06:43:29;;;;;;;1.70;0.77;;;15.10;91.80;;;;;;5032267;28;20108;-70
2022/08/06 06:46:06;;;;;;;5.60;1.15;;;15.20;91.30;;;;;;5032115;28;20032;-70
2022/08/06 06:48:41;;;;;;;1.40;1.08;;;15.30;91.00;;;;;;5032122;28;20033;-77
2022/08/06 06:51:14;;;;;;;2.90;0.77;;;15.50;91.00;;;;;;5031267;28;20117;-76
2022/08/06 06:53:44;;;;;;;1.60;0.77;;;15.60;90.80;;;;;;5031952;28;20029;-76
2022/08/06 06:56:13;;;;;;;1.10;0.80;;;15.60;90.50;;;;;;5032038;28;20091;-73
2022/08/06 06:58:48;;;;;;;5.53;0.90;;;15.70;90.20;;;;;;5013881;28;20033;-75
2022/08/06 07:01:16;;;;;;;5.22;1.00;;;15.90;90.00;;;;;;5031985;28;20077;-75
2022/08/06 07:03:44;;;;;;;2.90;0.70;;;16.00;88.90;;;;;;5031648;28;20037;-76
2022/08/06 07:06:11;;;;;;;2.85;0.90;;;16.10;88.60;;;;;;5031069;28;20029;-75
2022/08/06 07:08:47;;;;;;;2.90;0.90;;;16.10;87.00;;;;;;5032103;28;20025;-75
2022/08/06 07:11:20;;;;;;;2.25;1.00;;;16.20;87.00;;;;;;5030958;28;20033;-74
2022/08/06 07:13:47;;;;;;;2.67;0.90;;;16.30;86.20;;;;;;5031744;28;20112;-73
2022/08/06 07:16:16;;;;;;;2.42;1.00;;;16.40;86.30;;;;;;5031314;28;20026;-75
2022/08/06 07:18:43;;;;;;;0.90;0.80;;;16.40;85.60;;;;;;5030945;28;20021;-67
2022/08/06 07:21:10;;;;;;;3.40;2.45;;;16.50;85.30;;;;;;5031137;28;20075;-69
2022/08/06 07:23:36;;;;;;;2.72;0.85;;;16.50;84.30;;;;;;5031463;28;20125;-71
2022/08/06 07:26:04;;;;;;;3.03;0.90;;;16.60;84.00;;;;;;5030572;28;20390;-71
2022/08/06 07:28:30;;;;;;;2.97;1.05;;;16.60;83.70;;;;;;5031571;28;20113;-67
2022/08/06 07:30:58;;;;;;;3.28;1.15;;;16.80;83.50;;;;;;5013573;28;20335;-70
2022/08/06 07:33:24;;;;;;;3.05;0.75;;;16.80;82.50;;;;;;5013269;28;20014;-73
2022/08/06 07:35:51;;;;;;;1.52;0.77;;;16.90;80.70;;;;;;5031081;28;20114;-76
2022/08/06 07:38:20;;;;;;;2.92;1.00;;;16.90;81.10;;;;;;5031566;28;20013;-75
2022/08/06 07:40:51;;;;;;;3.85;0.85;;;17.00;80.30;;;;;;5031183;28;20080;-77
2022/08/06 07:43:21;;;;;;;3.85;1.02;;;17.10;79.30;;;;;;5031057;28;20025;-64
2022/08/06 07:45:49;;;;;;;3.42;0.90;;;17.10;79.50;;;;;;5030309;28;20032;-61
2022/08/06 07:48:18;;;;;;;2.70;1.00;;;17.20;78.20;;;;;;5030265;28;20467;-61
2022/08/06 07:50:48;;;;;;;3.65;0.80;;;17.20;78.00;;;;;;5030965;28;20592;-61
2022/08/06 07:53:14;;;;;;;3.05;0.93;;;17.30;76.90;;;;;;5045924;28;20394;-62
2022/08/06 07:55:42;;;;;;;1.98;1.00;;;17.40;76.50;;;;;;5012753;28;20022;-60
2022/08/06 07:58:08;;;;;;;3.53;1.40;;;17.40;75.00;;;;;;5031023;28;20049;-66
2022/08/06 08:00:34;;;;;;;1.15;0.50;;;17.40;74.80;;;;;;5030356;28;20049;-63
2022/08/06 08:08:30;;;;;;;2.88;0.70;;;17.60;70.40;;;;;;5030351;28;20048;-59
2022/08/06 08:10:56;;;;;;;3.55;0.90;;;17.70;69.60;;;;;;5030541;28;20474;-61
2022/08/06 08:13:25;;;;;;;2.30;0.70;;;17.80;69.50;;;;;;5013394;28;20048;-67
2022/08/06 08:15:55;;;;;;;2.92;0.60;;;17.90;69.00;;;;;;5023711;28;20533;-61
2022/08/06 08:18:27;;;;;;;2.92;0.60;;;17.90;68.80;;;;;;5022294;28;20033;-65
2022/08/06 08:20:53;;;;;;;2.88;0.50;;;18.00;68.30;;;;;;5049883;28;20056;-62
2022/08/06 08:23:19;;;;;;;0.88;0.50;;;18.00;69.20;;;;;;5032521;28;20378;-61
2022/08/06 08:25:45;;;;;;;2.17;0.68;;;18.20;69.10;;;;;;5030517;28;20037;-61
2022/08/06 08:28:12;;;;;;;1.70;0.50;;;18.30;67.60;;;;;;5029862;28;20021;-66
2022/08/06 08:30:42;;;;;;;2.67;0.65;;;18.50;66.70;;;;;;5012255;28;20032;-61
2022/08/06 08:33:09;;;;;;;1.23;0.60;;;18.50;66.00;;;;;;5029872;28;20393;-73
2022/08/06 08:35:35;;;;;;;1.58;0.60;;;18.60;65.20;;;;;;5047330;28;20128;-62
2022/08/06 08:38:00;;;;;;;1.27;0.73;;;18.70;65.60;;;;;;5032110;28;20111;-63
2022/08/06 08:40:28;;;;;;;2.92;0.50;;;18.90;65.90;;;;;;5032154;28;20029;-68
2022/08/06 08:42:58;;;;;;;1.42;0.65;;;19.10;65.10;;;;;;5049269;28;20064;-61
2022/08/06 08:45:25;;;;;;;1.10;0.52;;;19.30;62.80;;;;;;5050537;28;20170;-63
2022/08/06 08:47:53;;;;;;;0.52;0.50;;;19.40;63.20;;;;;;5050033;28;20029;-70
2022/08/06 08:50:27;;;;;;;1.63;0.60;;;19.50;62.30;;;;;;5049353;28;20091;-62
2022/08/06 08:53:08;;;;;;;1.40;0.60;;;19.70;61.10;;;;;;5034613;28;20048;-63
2022/08/06 08:55:34;;;;;;;1.75;0.45;;;19.80;61.20;;;;;;5032827;28;20071;-61
2022/08/06 08:58:01;;;;;;;2.50;0.40;;;19.90;59.50;;;;;;5041159;28;20045;-62
2022/08/06 09:00:27;;;;;;;2.20;0.55;;;20.00;59.30;;;;;;5033984;28;20033;-65
2022/08/06 09:02:53;;;;;;;5.10;0.90;;;20.00;59.00;;;;;;5045706;28;20063;-67
2022/08/06 09:05:20;;;;;;;0.47;0.47;;;19.90;58.70;;;;;;5019072;28;20033;-64
2022/08/06 09:07:46;;;;;;;0.75;0.50;;;19.80;59.00;;;;;;5031858;28;20152;-68
2022/08/06 09:10:12;;;;;;;2.40;0.88;;;19.60;59.40;;;;;;5029210;28;20526;-69
2022/08/06 09:12:38;;;;;;;2.88;0.90;;;19.50;60.40;;;;;;5022903;28;20030;-63
2022/08/06 09:15:04;;;;;;;1.20;0.65;;;19.60;61.60;;;;;;5053706;28;20021;-61
2022/08/06 09:17:30;;;;;;;0.65;0.43;;;19.70;60.90;;;;;;5029085;28;20497;-70
2022/08/06 09:19:56;;;;;;;0.68;0.45;;;19.80;60.90;;;;;;5033040;28;20030;-64
2022/08/06 09:22:22;;;;;;;2.17;0.90;;;20.00;61.10;;;;;;5032418;28;20489;-68
2022/08/06 09:24:48;;;;;;;1.23;0.60;;;20.20;59.20;;;;;;5030911;28;20143;-65
2022/08/06 09:27:17;;;;;;;2.92;0.70;;;20.40;59.30;;;;;;5033514;28;20022;-64
2022/08/06 09:29:57;;;;;;;2.15;0.60;;;20.80;58.90;;;;;;5033331;28;20048;-73
2022/08/06 09:32:56;;;;;;;2.30;0.70;;;21.10;57.20;;;;;;5032827;28;20025;-62
2022/08/06 09:35:24;;;;;;;2.83;0.60;;;21.30;53.80;;;;;;5000364;28;20128;-67
2022/08/06 09:37:58;;;;;;;2.33;0.63;;;21.20;53.80;;;;;;5033230;28;20029;-63
2022/08/06 09:40:24;;;;;;;1.85;0.55;;;21.20;53.90;;;;;;5033221;28;20022;-61
2022/08/06 09:42:50;;;;;;;2.15;0.80;;;21.10;54.20;;;;;;5033420;28;20053;-63
2022/08/06 09:45:17;;;;;;;1.25;0.60;;;21.00;54.80;;;;;;5033656;28;20064;-66
2022/08/06 09:47:45;;;;;;;1.67;0.50;;;20.80;55.10;;;;;;5032992;28;20053;-71
2022/08/06 09:50:11;;;;;;;2.58;0.60;;;20.60;54.90;;;;;;5033239;28;20022;-70
2022/08/06 09:52:36;;;;;;;0.50;0.45;;;20.30;55.40;;;;;;5033819;28;20041;-74
2022/08/06 09:55:02;;;;;;;1.92;0.70;;;20.10;55.90;;;;;;5032559;28;20028;-61
2022/08/06 09:57:44;;;;;;;2.08;0.73;;;19.90;57.50;;;;;;5015284;28;20477;-72
2022/08/06 10:00:23;;;;;;;0.68;0.60;;;19.80;58.90;;;;;;5032176;28;20140;-74
2022/08/06 10:02:54;;;;;;;2.80;0.70;;;19.70;59.80;;;;;;5032786;28;20493;-60
2022/08/06 10:05:22;;;;;;;2.95;0.55;;;19.60;61.20;;;;;;5015327;28;20018;-61
2022/08/06 10:08:04;;;;;;;1.58;0.63;;;19.70;62.00;;;;;;5031445;28;20030;-62
2022/08/06 10:10:50;;;;;;;0.70;0.50;;;19.80;61.30;;;;;;5033020;28;20026;-69
2022/08/06 10:13:25;;;;;;;1.63;0.65;;;19.90;60.00;;;;;;5032904;28;20544;-61
2022/08/06 10:15:55;;;;;;;1.88;0.52;;;19.90;58.50;;;;;;5031926;28;20095;-68
2022/08/06 10:18:36;;;;;;;1.30;0.50;;;20.10;57.90;;;;;;5033065;28;20067;-61
2022/08/06 10:21:06;;;;;;;0.82;0.55;;;20.20;58.40;;;;;;5031669;28;20052;-63
2022/08/06 10:23:34;;;;;;;2.25;0.40;;;20.30;58.20;;;;;;5032155;28;20029;-62
2022/08/06 10:26:03;;;;;;;1.08;0.50;;;20.50;58.50;;;;;;5032508;28;20470;-61
2022/08/06 10:28:30;;;;;;;1.02;0.50;;;20.60;57.70;;;;;;5031766;28;20017;-63
2022/08/06 10:30:57;;;;;;;0.70;0.40;;;20.70;56.20;;;;;;5032112;28;20054;-61
2022/08/06 10:33:24;;;;;;;0.80;0.55;;;20.90;55.50;;;;;;5025673;28;20095;-64
2022/08/06 10:35:57;;;;;;;1.08;0.50;;;21.10;54.00;;;;;;5011551;28;20050;-61
2022/08/06 10:38:27;;;;;;;0.93;0.60;;;21.20;52.40;;;;;;5013930;28;20033;-66
2022/08/06 10:40:53;;;;;;;1.05;0.57;;;21.40;51.80;;;;;;4994523;28;20450;-63
2022/08/06 10:43:20;;;;;;;1.27;0.30;;;21.50;51.00;;;;;;5011941;28;20160;-61
2022/08/06 10:45:46;;;;;;;1.48;0.57;;;21.60;48.80;;;;;;5023871;28;20340;-63
2022/08/06 10:48:12;;;;;;;1.35;0.70;;;21.60;50.10;;;;;;5031922;28;20120;-61
2022/08/06 10:50:39;;;;;;;3.22;0.50;;;21.70;51.10;;;;;;5031342;28;20677;-66
2022/08/06 10:53:05;;;;;;;1.10;0.40;;;22.00;50.40;;;;;;5031838;28;20021;-64
2022/08/06 10:55:32;;;;;;;1.05;0.50;;;22.10;49.40;;;;;;5032107;28;20577;-63
2022/08/06 10:57:59;;;;;;;0.65;0.38;;;22.30;49.20;;;;;;5031222;28;20026;-62
2022/08/06 11:00:25;;;;;;;1.50;0.60;;;22.50;49.60;;;;;;5033108;28;20108;-62
2022/08/06 11:03:00;;;;;;;0.95;0.50;;;22.50;49.00;;;;;;5031543;28;20091;-63
2022/08/06 11:05:36;;;;;;;2.25;0.80;;;22.50;48.80;;;;;;5031306;28;20036;-62
2022/08/06 11:08:10;;;;;;;1.30;0.38;;;22.40;49.80;;;;;;5031501;28;20083;-64
2022/08/06 11:11:20;;;;;;;1.30;0.50;;;22.30;49.50;;;;;;5031204;28;20040;-62
2022/08/06 11:14:10;;;;;;;2.58;0.68;;;22.20;48.30;;;;;;5026168;28;20032;-66
2022/08/06 11:16:38;;;;;;;0.85;0.40;;;22.10;48.20;;;;;;5031763;28;20022;-71
2022/08/06 11:19:09;;;;;;;2.17;0.75;;;22.10;49.20;;;;;;5030796;28;20033;-74
2022/08/06 11:21:46;;;;;;;1.58;0.70;;;21.90;51.90;;;;;;5031608;28;20127;-61
2022/08/06 11:24:13;;;;;;;0.93;0.60;;;21.70;53.10;;;;;;5030917;28;20041;-62
2022/08/06 11:26:40;;;;;;;1.70;0.60;;;21.50;53.70;;;;;;5027355;28;20086;-62
2022/08/06 11:29:08;;;;;;;2.70;0.75;;;21.30;54.10;;;;;;5011141;28;20037;-62
2022/08/06 11:31:35;;;;;;;1.20;0.70;;;21.10;54.50;;;;;;5010902;28;20091;-61
2022/08/06 11:34:05;;;;;;;1.52;0.55;;;20.90;55.20;;;;;;5018933;28;20115;-61
2022/08/06 11:36:44;;;;;;;5.07;0.70;;;21.00;55.30;;;;;;5031129;28;20064;-61
2022/08/06 11:39:09;;;;;;;1.58;0.60;;;21.10;55.50;;;;;;5029896;28;20389;-69
2022/08/06 11:41:49;;;;;;;1.00;0.55;;;21.30;54.80;;;;;;5029131;28;20119;-66
2022/08/06 11:44:17;;;;;;;2.35;0.70;;;21.50;54.60;;;;;;5029805;28;20026;-72
2022/08/06 11:46:45;;;;;;;1.45;0.60;;;21.80;53.80;;;;;;5007036;28;20611;-63
2022/08/06 11:49:34;;;;;;;1.08;0.60;;;21.90;53.90;;;;;;5019029;28;20033;-66
2022/08/06 11:52:01;;;;;;;1.92;0.50;;;22.10;53.30;;;;;;4992441;28;20456;-71
2022/08/06 11:54:28;;;;;;;0.38;0.32;;;22.10;53.90;;;;;;5016202;28;20017;-61
2022/08/06 11:57:09;;;;;;;0.68;0.40;;;22.10;53.70;;;;;;5014652;28;20029;-73
2022/08/06 11:59:34;;;;;;;1.35;0.73;;;22.00;54.00;;;;;;5029661;28;20021;-69
2022/08/06 12:02:03;;;;;;;1.27;0.57;;;22.00;52.90;;;;;;5029239;28;20135;-71
2022/08/06 12:04:34;;;;;;;0.95;0.43;;;21.90;52.60;;;;;;5030440;28;20031;-68
2022/08/06 12:07:25;;;;;;;0.98;0.60;;;21.80;53.40;;;;;;5027482;28;20539;-76
2022/08/06 12:10:05;;;;;;;1.02;0.52;;;21.70;53.70;;;;;;5030509;28;20429;-75
2022/08/06 12:13:01;;;;;;;0.73;0.40;;;21.80;53.00;;;;;;5029743;28;20021;-61
2022/08/06 12:15:28;;;;;;;0.43;0.40;;;22.10;52.20;;;;;;5016622;28;20037;-60
2022/08/06 12:17:57;;;;;;;3.42;0.50;;;22.30;51.10;;;;;;5030161;28;20108;-67
2022/08/06 12:20:36;;;;;;;1.48;0.55;;;22.50;52.00;;;;;;5029766;28;20022;-60
2022/08/06 12:23:04;;;;;;;1.67;0.50;;;22.80;52.00;;;;;;5031467;28;20091;-60
2022/08/06 12:25:36;;;;;;;0.65;0.40;;;23.00;51.70;;;;;;5029620;28;20037;-65
2022/08/06 12:28:03;;;;;;;0.28;0.28;;;23.00;49.40;;;;;;5008289;28;20026;-60
2022/08/06 12:30:44;;;;;;;0.73;0.50;;;22.80;49.90;;;;;;5012183;28;20498;-60
2022/08/06 12:33:10;;;;;;;1.05;0.50;;;22.70;50.20;;;;;;5017623;28;20043;-61
2022/08/06 12:35:47;;;;;;;1.85;0.50;;;22.50;49.30;;;;;;5013156;28;20539;-62
2022/08/06 12:38:12;;;;;;;2.28;0.60;;;22.40;49.40;;;;;;5014135;28;20050;-60
2022/08/06 12:40:38;;;;;;;0.43;0.40;;;22.30;50.10;;;;;;5029334;28;20462;-65
2022/08/06 12:43:04;;;;;;;2.65;0.68;;;22.20;49.30;;;;;;5024665;28;20025;-60
2022/08/06 12:45:32;;;;;;;3.25;0.55;;;22.10;49.50;;;;;;5015653;28;20099;-59
2022/08/06 12:48:06;;;;;;;1.27;0.60;;;22.10;49.80;;;;;;5033547;28;20457;-59
2022/08/06 12:50:34;;;;;;;2.03;0.63;;;22.10;49.90;;;;;;5033458;28;20048;-62
2022/08/06 12:53:10;;;;;;;1.00;0.38;;;22.20;49.70;;;;;;5014913;28;20408;-61
2022/08/06 12:55:49;;;;;;;0.52;0.45;;;22.20;48.90;;;;;;5034054;28;20113;-65
2022/08/06 12:58:18;;;;;;;1.67;1.10;;;22.20;48.60;;;;;;5034324;28;20485;-60
2022/08/06 13:00:48;;;;;;;0.85;0.50;;;22.30;48.20;;;;;;5034356;28;20178;-58
2022/08/06 13:03:14;;;;;;;0.43;0.33;;;22.40;48.70;;;;;;5033629;28;20041;-62
2022/08/06 13:05:41;;;;;;;0.73;0.60;;;22.60;48.60;;;;;;5034800;28;20028;-68
2022/08/06 13:08:07;;;;;;;0.68;0.30;;;22.60;47.90;;;;;;5034573;28;20029;-68
2022/08/06 13:10:33;;;;;;;4.40;0.60;;;22.60;47.80;;;;;;5033578;28;20018;-69